Time;durP1;ratioP1;P1;durP2;ratioP2;P2;SDS_P1;SDS_P2;PMS_P1;PMS_P2;Temp;Humidity;BMP_temperature;BMP_pressure;BME280_temperature;BME280_humidity;BME280_pressure;Samples;Min_cycle;Max_cycle;Signal;HPM_P1;HPM_P2
2022/07/12 00:02:13;;;;;;;;;;;23.00;80.50;;;;;;5103813;28;20550;-58
2022/07/12 00:04:40;;;;;;;;;;;23.00;80.60;;;;;;5106992;28;20283;-57
2022/07/12 00:07:08;;;;;;;;;;;23.00;80.90;;;;;;5108032;28;19919;-56
2022/07/12 00:09:35;;;;;;;;;;;22.90;81.10;;;;;;5107603;28;19927;-56
2022/07/12 00:12:03;;;;;;;;;;;22.90;81.20;;;;;;5109171;28;19920;-57
2022/07/12 00:14:31;;;;;;;;;;;22.80;81.40;;;;;;5104726;28;19923;-56
2022/07/12 00:16:58;;;;;;;;;;;22.80;81.60;;;;;;5089240;28;19923;-57
2022/07/12 00:19:26;;;;;;;;;;;22.80;82.00;;;;;;5110174;28;20112;-57
2022/07/12 00:21:53;;;;;;;;;;;22.70;82.20;;;;;;5107376;28;20137;-57
2022/07/12 00:24:20;;;;;;;;;;;22.70;82.50;;;;;;5112856;28;19924;-57
2022/07/12 00:26:48;;;;;;;;;;;22.60;82.60;;;;;;5098957;28;19931;-57
2022/07/12 00:29:15;;;;;;;;;;;22.60;83.00;;;;;;5111710;28;20667;-57
2022/07/12 00:31:43;;;;;;;;;;;22.60;83.20;;;;;;5108408;28;19920;-57
2022/07/12 00:34:10;;;;;;;;;;;22.50;83.60;;;;;;5103781;28;20507;-57
2022/07/12 00:36:38;;;;;;;;;;;22.50;83.90;;;;;;5105489;28;20290;-57
2022/07/12 00:39:06;;;;;;;;;;;22.40;84.20;;;;;;5110838;28;20159;-57
2022/07/12 00:41:33;;;;;;;;;;;22.40;84.20;;;;;;5111989;28;20478;-57
2022/07/12 00:44:00;;;;;;;;;;;22.40;84.20;;;;;;5111831;28;19927;-58
2022/07/12 00:46:28;;;;;;;;;;;22.40;84.30;;;;;;5100112;28;20299;-56
2022/07/12 00:48:56;;;;;;;;;;;22.40;84.30;;;;;;5101022;28;19920;-57
2022/07/12 00:51:25;;;;;;;;;;;22.40;84.50;;;;;;5100293;28;20357;-57
2022/07/12 00:53:55;;;;;;;;;;;22.30;84.60;;;;;;5112090;28;19919;-57
2022/07/12 00:56:23;;;;;;;;;;;22.30;85.10;;;;;;5102820;28;19931;-57
2022/07/12 00:58:50;;;;;;;;;;;22.30;85.20;;;;;;5100666;28;19919;-57
2022/07/12 01:01:18;;;;;;;;;;;22.20;85.30;;;;;;5110855;28;19943;-55
2022/07/12 01:03:46;;;;;;;;;;;22.20;85.60;;;;;;5108056;28;19939;-56
2022/07/12 01:06:14;;;;;;;;;;;22.10;85.70;;;;;;5097398;28;19931;-57
2022/07/12 01:08:41;;;;;;;;;;;22.10;85.90;;;;;;5096780;28;19927;-57
2022/07/12 01:11:09;;;;;;;;;;;22.10;86.10;;;;;;5101678;28;19919;-57
2022/07/12 01:13:37;;;;;;;;;;;22.00;86.40;;;;;;5110361;28;19942;-57
2022/07/12 01:16:05;;;;;;;;;;;22.00;86.60;;;;;;5101976;28;19920;-57
2022/07/12 01:18:33;;;;;;;;;;;22.00;86.90;;;;;;5091426;28;19943;-57
2022/07/12 01:21:06;;;;;;;;;;;21.90;87.40;;;;;;5095398;28;19924;-57
2022/07/12 01:23:34;;;;;;;;;;;21.90;87.60;;;;;;5111807;28;19920;-56
2022/07/12 01:26:03;;;;;;;;;;;21.90;88.10;;;;;;5102081;28;19927;-57
2022/07/12 01:28:30;;;;;;;;;;;21.90;88.40;;;;;;5099438;28;19920;-57
2022/07/12 01:30:58;;;;;;;;;;;21.80;88.50;;;;;;5095985;28;20294;-55
2022/07/12 01:33:26;;;;;;;;;;;21.80;88.50;;;;;;5107397;28;19931;-55
2022/07/12 01:35:53;;;;;;;;;;;21.70;88.70;;;;;;5112392;28;19920;-57
2022/07/12 01:38:21;;;;;;;;;;;21.80;89.10;;;;;;5108892;28;19920;-55
2022/07/12 01:40:48;;;;;;;;;;;21.70;89.30;;;;;;5113464;28;20386;-56
2022/07/12 01:43:16;;;;;;;;;;;21.70;89.50;;;;;;5113892;28;19919;-57
2022/07/12 01:45:44;;;;;;;;;;;21.70;89.60;;;;;;5112112;28;20260;-56
2022/07/12 01:48:11;;;;;;;;;;;21.70;89.70;;;;;;5112530;28;19919;-56
2022/07/12 01:50:39;;;;;;;;;;;21.70;90.00;;;;;;5111930;28;19929;-57
2022/07/12 01:53:07;;;;;;;;;;;21.70;90.10;;;;;;5113261;28;19927;-56
2022/07/12 01:55:34;;;;;;;;;;;21.60;90.20;;;;;;5114418;28;19924;-55
2022/07/12 01:58:02;;;;;;;;;;;21.60;90.30;;;;;;5112107;28;19919;-58
2022/07/12 02:00:30;;;;;;;;;;;21.60;90.40;;;;;;5113172;28;20374;-55
2022/07/12 02:02:58;;;;;;;;;;;21.60;90.50;;;;;;5112511;28;19924;-58
2022/07/12 02:05:26;;;;;;;;;;;21.60;90.60;;;;;;5114195;28;19920;-58
2022/07/12 02:07:54;;;;;;;;;;;21.50;90.80;;;;;;5111908;28;20490;-55
2022/07/12 02:10:22;;;;;;;;;;;21.50;90.90;;;;;;5112868;28;20367;-57
2022/07/12 02:12:49;;;;;;;;;;;21.50;91.20;;;;;;5113292;28;19927;-58
2022/07/12 02:15:17;;;;;;;;;;;21.40;91.50;;;;;;5113439;28;19927;-58
2022/07/12 02:17:46;;;;;;;;;;;21.40;91.40;;;;;;5112697;28;19927;-56
2022/07/12 02:20:13;;;;;;;;;;;21.40;91.70;;;;;;5113347;28;19931;-57
2022/07/12 02:22:40;;;;;;;;;;;21.40;91.50;;;;;;5112033;28;20387;-55
2022/07/12 02:25:08;;;;;;;;;;;21.40;91.50;;;;;;5113246;28;19926;-57
2022/07/12 02:27:35;;;;;;;;;;;21.40;91.60;;;;;;5111938;28;19920;-55
2022/07/12 02:30:03;;;;;;;;;;;21.40;91.60;;;;;;5111908;28;20314;-56
2022/07/12 02:32:30;;;;;;;;;;;21.30;91.70;;;;;;5108413;28;19994;-56
2022/07/12 02:34:58;;;;;;;;;;;21.30;91.80;;;;;;5113785;28;19931;-57
2022/07/12 02:37:25;;;;;;;;;;;21.30;92.00;;;;;;5112254;28;20367;-57
2022/07/12 02:40:53;;;;;;;;;;;21.30;92.10;;;;;;5113008;28;20385;-57
2022/07/12 02:42:40;;;;;;;;;;;21.30;92.10;;;;;;5111528;28;19923;-56
2022/07/12 02:45:08;;;;;;;;;;;21.30;92.10;;;;;;5112796;28;19946;-57
2022/07/12 02:47:39;;;;;;;;;;;21.30;92.20;;;;;;5111687;28;19947;-57
2022/07/12 02:50:07;;;;;;;;;;;21.30;92.20;;;;;;5113607;28;20298;-57
2022/07/12 02:52:34;;;;;;;;;;;21.30;92.20;;;;;;5110966;28;19920;-58
2022/07/12 02:55:01;;;;;;;;;;;21.30;92.20;;;;;;5113249;28;19919;-56
2022/07/12 02:57:29;;;;;;;;;;;21.30;92.30;;;;;;5110928;28;19926;-56
2022/07/12 02:59:57;;;;;;;;;;;21.30;92.40;;;;;;5113274;28;19927;-56
2022/07/12 03:02:24;;;;;;;;;;;21.30;92.50;;;;;;5111821;28;19943;-56
2022/07/12 03:04:52;;;;;;;;;;;21.30;92.50;;;;;;5113120;28;19939;-55
2022/07/12 03:07:19;;;;;;;;;;;21.30;92.60;;;;;;5111330;28;19919;-56
2022/07/12 03:09:46;;;;;;;;;;;21.30;92.70;;;;;;5109926;28;20390;-57
2022/07/12 03:12:14;;;;;;;;;;;21.30;92.80;;;;;;5108080;28;19928;-55
2022/07/12 03:14:41;;;;;;;;;;;21.20;92.90;;;;;;5092704;28;19930;-56
2022/07/12 03:17:09;;;;;;;;;;;21.70;93.00;;;;;;5102314;28;19927;-57
2022/07/12 03:19:37;;;;;;;;;;;21.20;92.90;;;;;;5111945;28;19919;-57
2022/07/12 03:22:04;;;;;;;;;;;21.20;92.90;;;;;;5111191;28;19920;-57
2022/07/12 03:24:31;;;;;;;;;;;21.20;93.00;;;;;;5111279;28;19939;-56
2022/07/12 03:26:59;;;;;;;;;;;21.20;93.10;;;;;;5109750;28;20367;-55
2022/07/12 03:29:26;;;;;;;;;;;21.10;93.10;;;;;;5111105;28;19920;-55
2022/07/12 03:31:54;;;;;;;;;;;21.20;93.20;;;;;;5110803;28;19919;-56
2022/07/12 03:34:21;;;;;;;;;;;21.20;93.20;;;;;;5092262;28;19920;-56
2022/07/12 03:36:48;;;;;;;;;;;21.20;93.30;;;;;;5099420;28;20318;-56
2022/07/12 03:39:16;;;;;;;;;;;21.10;93.40;;;;;;5111598;28;19920;-57
2022/07/12 03:41:43;;;;;;;;;;;21.10;93.40;;;;;;5112592;28;19920;-56
2022/07/12 03:44:11;;;;;;;;;;;21.10;93.50;;;;;;5112528;28;19920;-55
2022/07/12 03:46:38;;;;;;;;;;;21.10;93.60;;;;;;5112436;28;19920;-55
2022/07/12 03:49:05;;;;;;;;;;;21.10;93.60;;;;;;5112355;28;19931;-55
2022/07/12 03:51:33;;;;;;;;;;;21.00;93.70;;;;;;5112295;28;19930;-56
2022/07/12 03:54:00;;;;;;;;;;;21.00;93.80;;;;;;5112570;28;19919;-55
2022/07/12 03:59:14;;;;;;;;;;;21.00;93.90;;;;;;5112332;28;20379;-57
2022/07/12 04:01:43;;;;;;;;;;;20.90;94.10;;;;;;5112415;28;19920;-58
2022/07/12 04:04:10;;;;;;;;;;;20.90;94.30;;;;;;5112357;28;19920;-57
2022/07/12 04:06:41;;;;;;;;;;;20.90;94.40;;;;;;5111080;28;20373;-57
2022/07/12 04:09:08;;;;;;;;;;;20.80;94.50;;;;;;5112283;28;19926;-57
2022/07/12 04:11:36;;;;;;;;;;;20.80;94.60;;;;;;5112236;28;19930;-57
2022/07/12 04:14:03;;;;;;;;;;;20.80;94.70;;;;;;5112061;28;19920;-57
2022/07/12 04:16:31;;;;;;;;;;;20.70;94.80;;;;;;5112172;28;19920;-56
2022/07/12 04:18:58;;;;;;;;;;;20.70;94.90;;;;;;5111700;28;20298;-57
2022/07/12 04:21:26;;;;;;;;;;;20.70;95.00;;;;;;5109493;28;20299;-57
2022/07/12 04:23:53;;;;;;;;;;;20.70;95.10;;;;;;5112251;28;19919;-57
2022/07/12 04:26:20;;;;;;;;;;;20.70;95.20;;;;;;5112000;28;19919;-58
2022/07/12 04:28:48;;;;;;;;;;;20.70;95.20;;;;;;5110690;28;19919;-56
2022/07/12 04:31:15;;;;;;;;;;;20.70;95.20;;;;;;5110765;28;19919;-55
2022/07/12 04:33:43;;;;;;;;;;;20.70;95.30;;;;;;5108112;28;19919;-58
2022/07/12 04:36:10;;;;;;;;;;;20.70;95.40;;;;;;5111126;28;19920;-55
2022/07/12 04:38:38;;;;;;;;;;;20.70;95.50;;;;;;5107058;28;19919;-57
2022/07/12 04:41:05;;;;;;;;;;;20.70;95.50;;;;;;5111402;28;19919;-57
2022/07/12 04:43:32;;;;;;;;;;;20.60;95.60;;;;;;5109987;28;19923;-57
2022/07/12 04:46:09;;;;;;;;;;;20.60;95.80;;;;;;5112203;28;20434;-58
2022/07/12 04:48:37;;;;;;;;;;;20.60;95.90;;;;;;5091204;28;19920;-58
2022/07/12 04:51:04;;;;;;;;;;;20.60;96.00;;;;;;5088233;28;19927;-57
2022/07/12 04:53:32;;;;;;;;;;;20.50;96.10;;;;;;5095302;28;20673;-57
2022/07/12 04:55:59;;;;;;;;;;;20.50;96.20;;;;;;5097960;28;20411;-57
2022/07/12 04:58:27;;;;;;;;;;;20.50;96.20;;;;;;5081656;28;20395;-56
2022/07/12 05:00:54;;;;;;;;;;;20.50;96.50;;;;;;5087889;28;19920;-58
2022/07/12 05:03:26;;;;;;;;;;;20.50;96.70;;;;;;5094937;28;19919;-57
2022/07/12 05:05:54;;;;;;;;;;;20.50;96.80;;;;;;5109103;28;19943;-57
2022/07/12 05:08:22;;;;;;;;;;;20.50;96.80;;;;;;5100355;28;19919;-59
2022/07/12 05:10:49;;;;;;;;;;;20.50;96.80;;;;;;5108867;28;19989;-56
2022/07/12 05:13:17;;;;;;;;;;;20.40;96.80;;;;;;5102101;28;20814;-57
2022/07/12 05:15:44;;;;;;;;;;;20.40;97.00;;;;;;5095341;28;20367;-58
2022/07/12 05:18:12;;;;;;;;;;;20.50;97.00;;;;;;5108945;28;19919;-56
2022/07/12 05:20:41;;;;;;;;;;;20.40;97.00;;;;;;5109684;28;20359;-56
2022/07/12 05:23:16;;;;;;;;;;;20.50;97.10;;;;;;5108934;28;19931;-57
2022/07/12 05:25:43;;;;;;;;;;;20.50;97.10;;;;;;5108649;28;19919;-57
2022/07/12 05:28:11;;;;;;;;;;;20.50;97.10;;;;;;5100910;28;19924;-58
2022/07/12 05:30:38;;;;;;;;;;;20.50;97.20;;;;;;5109782;28;20472;-57
2022/07/12 05:33:06;;;;;;;;;;;20.50;97.20;;;;;;5105117;28;20271;-57
2022/07/12 05:35:33;;;;;;;;;;;20.50;97.20;;;;;;5106728;28;20001;-57
2022/07/12 05:38:02;;;;;;;;;;;20.50;97.20;;;;;;5108193;28;19926;-56
2022/07/12 05:40:30;;;;;;;;;;;20.50;97.20;;;;;;5108673;28;19919;-57
2022/07/12 05:42:58;;;;;;;;;;;20.50;97.20;;;;;;5105486;28;19927;-56
2022/07/12 05:45:26;;;;;;;;;;;20.50;97.20;;;;;;5111119;28;20148;-55
2022/07/12 05:47:53;;;;;;;;;;;20.60;97.20;;;;;;5107870;28;19919;-55
2022/07/12 05:50:21;;;;;;;;;;;20.50;97.10;;;;;;5110337;28;19919;-55
2022/07/12 05:55:34;;;;;;;;;;;20.50;97.20;;;;;;5097685;28;19923;-59
2022/07/12 05:58:03;;;;;;;;;;;20.60;97.20;;;;;;5107986;28;19920;-57
2022/07/12 06:00:32;;;;;;;;;;;20.60;97.20;;;;;;5106891;28;19920;-55
2022/07/12 06:03:00;;;;;;;;;;;20.60;97.30;;;;;;5104855;28;19926;-57
2022/07/12 06:05:27;;;;;;;;;;;20.60;97.30;;;;;;5105210;28;19920;-56
2022/07/12 06:07:55;;;;;;;;;;;20.60;97.40;;;;;;5106073;27;20375;-56
2022/07/12 06:10:22;;;;;;;;;;;20.70;97.40;;;;;;5109343;28;19920;-56
2022/07/12 06:12:50;;;;;;;;;;;20.70;97.40;;;;;;5109994;28;19930;-57
2022/07/12 06:15:18;;;;;;;;;;;20.70;97.40;;;;;;5107763;28;19928;-60
2022/07/12 06:17:47;;;;;;;;;;;20.70;97.50;;;;;;5109469;28;19950;-61
2022/07/12 06:20:15;;;;;;;;;;;20.80;97.50;;;;;;5109042;28;19926;-59
2022/07/12 06:22:42;;;;;;;;;;;20.80;97.60;;;;;;5105580;28;19928;-62
2022/07/12 06:25:10;;;;;;;;;;;20.80;97.60;;;;;;5110493;28;19919;-58
2022/07/12 06:28:00;;;;;;;;;;;20.80;97.60;;;;;;5107621;28;19927;-59
2022/07/12 06:30:28;;;;;;;;;;;20.90;97.60;;;;;;5109925;28;19920;-57
2022/07/12 06:32:55;;;;;;;;;;;20.90;97.60;;;;;;5105846;28;19934;-57
2022/07/12 06:35:23;;;;;;;;;;;21.00;97.60;;;;;;5108521;28;19952;-56
2022/07/12 06:37:50;;;;;;;;;;;21.10;97.70;;;;;;5101740;28;19930;-59
2022/07/12 06:40:18;;;;;;;;;;;21.10;97.60;;;;;;5096907;28;19924;-57
2022/07/12 06:42:45;;;;;;;;;;;21.10;97.60;;;;;;5098752;28;19935;-58
2022/07/12 06:45:13;;;;;;;;;;;21.10;97.60;;;;;;5103605;28;19934;-58
2022/07/12 06:47:40;;;;;;;;;;;21.20;97.50;;;;;;5099190;28;19920;-58
2022/07/12 06:50:08;;;;;;;;;;;21.20;97.30;;;;;;5109734;28;20394;-58
2022/07/12 06:52:35;;;;;;;;;;;21.20;97.10;;;;;;5103779;28;19927;-59
2022/07/12 06:55:03;;;;;;;;;;;21.30;96.90;;;;;;5094060;28;20826;-58
2022/07/12 06:57:31;;;;;;;;;;;21.30;96.80;;;;;;5101342;28;19920;-58
2022/07/12 06:59:59;;;;;;;;;;;21.40;96.80;;;;;;5099159;28;20370;-58
2022/07/12 07:02:26;;;;;;;;;;;21.40;96.80;;;;;;5102278;28;19920;-58
2022/07/12 07:04:54;;;;;;;;;;;21.50;96.70;;;;;;5104142;28;19927;-58
2022/07/12 07:07:21;;;;;;;;;;;21.60;96.50;;;;;;5103904;28;20374;-58
2022/07/12 07:09:49;;;;;;;;;;;21.60;96.50;;;;;;5094810;28;19920;-58
2022/07/12 07:12:16;;;;;;;;;;;21.70;96.30;;;;;;5104065;28;20588;-58
2022/07/12 07:14:44;;;;;;;;;;;21.70;96.30;;;;;;5087948;28;20379;-57
2022/07/12 07:17:11;;;;;;;;;;;21.80;96.30;;;;;;5097468;28;19920;-58
2022/07/12 07:19:38;;;;;;;;;;;21.80;96.20;;;;;;5088181;28;19920;-58
2022/07/12 07:22:06;;;;;;;;;;;21.80;96.10;;;;;;5097686;28;19949;-58
2022/07/12 07:24:33;;;;;;;;;;;21.90;96.10;;;;;;5094435;28;20254;-58
2022/07/12 07:27:01;;;;;;;;;;;21.90;96.10;;;;;;5100774;28;19919;-57
2022/07/12 07:32:14;;;;;;;;;;;21.90;95.70;;;;;;5103452;28;19923;-57
2022/07/12 07:34:42;;;;;;;;;;;21.90;95.70;;;;;;5106535;28;19920;-58
2022/07/12 07:37:09;;;;;;;;;;;21.90;95.80;;;;;;5106215;28;19919;-59
2022/07/12 07:39:37;;;;;;;;;;;21.90;95.70;;;;;;5089092;28;19931;-58
2022/07/12 07:42:04;;;;;;;;;;;22.00;95.70;;;;;;5097575;28;19919;-57
2022/07/12 07:44:32;;;;;;;;;;;22.10;95.70;;;;;;5108585;28;19926;-58
2022/07/12 07:47:00;;;;;;;;;;;22.10;95.40;;;;;;5107645;28;19920;-57
2022/07/12 07:49:28;;;;;;;;;;;22.10;95.20;;;;;;5101289;28;20422;-58
2022/07/12 07:51:55;;;;;;;;;;;22.10;95.20;;;;;;5097685;28;19931;-58
2022/07/12 07:54:23;;;;;;;;;;;22.20;95.20;;;;;;5101533;28;19920;-58
2022/07/12 07:56:50;;;;;;;;;;;22.20;95.10;;;;;;5097956;28;20308;-58
2022/07/12 07:59:18;;;;;;;;;;;22.20;95.10;;;;;;5103579;28;20375;-58
2022/07/12 08:01:45;;;;;;;;;;;22.20;95.10;;;;;;5103405;28;19931;-57
2022/07/12 08:04:13;;;;;;;;;;;22.20;95.10;;;;;;5090756;28;19927;-56
2022/07/12 08:06:41;;;;;;;;;;;22.20;95.00;;;;;;5101584;28;20293;-56
2022/07/12 08:09:08;;;;;;;;;;;22.20;95.00;;;;;;5088786;28;20371;-56
2022/07/12 08:11:39;;;;;;;;;;;22.20;95.00;;;;;;5105640;28;19924;-56
2022/07/12 08:14:07;;;;;;;;;;;22.10;95.10;;;;;;5096099;28;19930;-55
2022/07/12 08:16:35;;;;;;;;;;;22.20;95.40;;;;;;5105410;28;19928;-58
2022/07/12 08:19:03;;;;;;;;;;;22.20;95.30;;;;;;5105230;28;20424;-55
2022/07/12 08:21:31;;;;;;;;;;;22.30;95.20;;;;;;5104032;28;20260;-56
2022/07/12 08:23:59;;;;;;;;;;;22.40;95.10;;;;;;5091724;28;20284;-55
2022/07/12 08:26:26;;;;;;;;;;;22.50;95.10;;;;;;5091314;28;19919;-56
2022/07/12 08:28:53;;;;;;;;;;;22.60;95.00;;;;;;5105822;28;19943;-57
2022/07/12 08:31:21;;;;;;;;;;;22.70;94.70;;;;;;5089230;28;19920;-57
2022/07/12 08:33:49;;;;;;;;;;;22.70;94.50;;;;;;5091539;28;19924;-57
2022/07/12 08:36:16;;;;;;;;;;;22.80;94.10;;;;;;5093092;28;20407;-58
2022/07/12 08:38:44;;;;;;;;;;;22.90;94.20;;;;;;5090954;28;20275;-57
2022/07/12 08:41:13;;;;;;;;;;;22.90;93.80;;;;;;5095540;28;19919;-58
2022/07/12 08:43:41;;;;;;;;;;;23.00;93.40;;;;;;5096540;28;19920;-58
2022/07/12 08:46:10;;;;;;;;;;;23.00;93.30;;;;;;5095299;28;19919;-58
2022/07/12 08:48:38;;;;;;;;;;;23.00;93.40;;;;;;5093131;28;19920;-58
2022/07/12 08:51:10;;;;;;;;;;;23.10;93.50;;;;;;5098471;28;19997;-59
2022/07/12 08:53:38;;;;;;;;;;;23.10;93.40;;;;;;5105299;28;19926;-58
2022/07/12 08:56:06;;;;;;;;;;;23.10;93.10;;;;;;5109985;28;20461;-58
2022/07/12 08:58:34;;;;;;;;;;;23.10;93.20;;;;;;5103444;28;19930;-58
2022/07/12 09:01:01;;;;;;;;;;;23.10;93.10;;;;;;5110053;28;19963;-58
2022/07/12 09:03:29;;;;;;;;;;;23.00;92.90;;;;;;5096878;28;19924;-58
2022/07/12 09:05:57;;;;;;;;;;;22.90;93.10;;;;;;5107069;28;20394;-58
2022/07/12 09:08:28;;;;;;;;;;;22.80;93.10;;;;;;5103242;28;19920;-59
2022/07/12 09:10:58;;;;;;;;;;;22.80;93.10;;;;;;5088817;28;19920;-57
2022/07/12 09:13:48;;;;;;;;;;;22.80;93.20;;;;;;5104359;28;19927;-57
2022/07/12 09:16:16;;;;;;;;;;;22.80;93.40;;;;;;5104323;28;20500;-57
2022/07/12 09:18:44;;;;;;;;;;;22.90;93.30;;;;;;5092360;28;20323;-58
2022/07/12 09:21:25;;;;;;;;;;;22.90;93.10;;;;;;5093517;28;19920;-58
2022/07/12 09:23:55;;;;;;;;;;;23.00;93.10;;;;;;5103145;28;19920;-58
2022/07/12 09:26:29;;;;;;;;;;;23.00;93.00;;;;;;5108417;28;19931;-58
2022/07/12 09:29:04;;;;;;;;;;;23.10;92.90;;;;;;5110486;28;19919;-58
2022/07/12 09:31:38;;;;;;;;;;;23.20;93.00;;;;;;5109614;28;20222;-60
2022/07/12 09:36:56;;;;;;;;;;;23.40;92.80;;;;;;5102846;28;20294;-57
2022/07/12 09:39:27;;;;;;;;;;;23.60;92.80;;;;;;5101350;28;19927;-58
2022/07/12 09:41:55;;;;;;;;;;;23.70;92.30;;;;;;5098064;28;19927;-58
2022/07/12 09:44:23;;;;;;;;;;;23.70;92.10;;;;;;5094995;28;19939;-57
2022/07/12 09:46:51;;;;;;;;;;;23.80;91.80;;;;;;5106273;28;19924;-58
2022/07/12 09:49:19;;;;;;;;;;;23.70;92.00;;;;;;5097622;28;20025;-58
2022/07/12 09:51:55;;;;;;;;;;;23.80;92.10;;;;;;5091961;28;19919;-58
2022/07/12 09:54:27;;;;;;;;;;;23.80;91.90;;;;;;5083807;28;19920;-59
2022/07/12 09:56:59;;;;;;;;;;;23.80;91.90;;;;;;5100443;28;19950;-57
2022/07/12 09:59:27;;;;;;;;;;;23.70;91.90;;;;;;5098598;28;19927;-57
2022/07/12 10:01:59;;;;;;;;;;;23.70;91.90;;;;;;5092617;28;20382;-58
2022/07/12 10:04:30;;;;;;;;;;;23.70;91.80;;;;;;5099223;28;20367;-58
2022/07/12 10:06:58;;;;;;;;;;;23.60;91.80;;;;;;5101093;28;20423;-60
2022/07/12 10:09:26;;;;;;;;;;;23.60;91.90;;;;;;5102331;28;19920;-60
2022/07/12 10:11:55;;;;;;;;;;;23.60;92.10;;;;;;5095107;28;19919;-61
2022/07/12 10:14:28;;;;;;;;;;;23.70;92.20;;;;;;5106410;27;20292;-62
2022/07/12 10:16:56;;;;;;;;;;;23.80;92.20;;;;;;5091846;28;19928;-60
2022/07/12 10:19:24;;;;;;;;;;;23.80;92.20;;;;;;5101267;28;20390;-60
2022/07/12 10:21:52;;;;;;;;;;;23.90;92.30;;;;;;5095776;28;19943;-58
2022/07/12 10:24:32;;;;;;;;;;;23.90;92.00;;;;;;5090862;28;19920;-57
2022/07/12 10:27:20;;;;;;;;;;;24.00;92.00;;;;;;5091039;28;19927;-62
2022/07/12 10:29:49;;;;;;;;;;;24.00;92.00;;;;;;5098595;28;19946;-62
2022/07/12 10:32:27;;;;;;;;;;;24.00;91.40;;;;;;5106283;28;20393;-57
2022/07/12 10:35:02;;;;;;;;;;;23.90;91.50;;;;;;5091561;28;19927;-58
2022/07/12 10:37:30;;;;;;;;;;;23.70;91.40;;;;;;5094282;28;19927;-58
2022/07/12 10:40:17;;;;;;;;;;;23.60;91.50;;;;;;5106399;28;19919;-57
2022/07/12 10:43:03;;;;;;;;;;;23.50;91.80;;;;;;5104888;28;20414;-57
2022/07/12 10:45:36;;;;;;;;;;;23.50;91.80;;;;;;5102263;28;19920;-56
2022/07/12 10:48:03;;;;;;;;;;;23.50;92.10;;;;;;5102151;28;19943;-57
2022/07/12 10:51:03;;;;;;;;;;;23.60;92.10;;;;;;5104079;28;20350;-57
2022/07/12 10:53:29;;;;;;;;;;;23.60;92.30;;;;;;5100702;28;19927;-58
2022/07/12 10:56:16;;;;;;;;;;;23.70;92.00;;;;;;5091843;28;19920;-57
2022/07/12 10:58:52;;;;;;;;;;;23.80;91.90;;;;;;5093180;28;19920;-57
2022/07/12 11:01:21;;;;;;;;;;;23.80;91.40;;;;;;5103674;28;20290;-57
2022/07/12 11:03:49;;;;;;;;;;;23.90;91.40;;;;;;5095483;28;20297;-58
2022/07/12 11:06:18;;;;;;;;;;;24.00;91.50;;;;;;5089616;28;19924;-57
2022/07/12 11:08:49;;;;;;;;;;;24.10;91.20;;;;;;5107133;28;19923;-58
2022/07/12 11:11:17;;;;;;;;;;;24.10;91.00;;;;;;5109318;28;19923;-58
2022/07/12 11:13:45;;;;;;;;;;;24.20;91.10;;;;;;5099650;28;19934;-58
2022/07/12 11:16:12;;;;;;;;;;;24.40;91.20;;;;;;5097671;28;19920;-57
2022/07/12 11:18:40;;;;;;;;;;;24.40;90.70;;;;;;5103320;28;19927;-57
2022/07/12 11:21:08;;;;;;;;;;;24.40;90.50;;;;;;5095895;28;20832;-58
2022/07/12 11:23:35;;;;;;;;;;;24.40;90.90;;;;;;5095883;28;19954;-57
2022/07/12 11:26:03;;;;;;;;;;;24.30;91.30;;;;;;5105589;28;19919;-57
2022/07/12 11:28:31;;;;;;;;;;;24.30;91.50;;;;;;5097099;28;19920;-57
2022/07/12 11:31:08;;;;;;;;;;;24.40;91.70;;;;;;5094870;28;19930;-57
2022/07/12 11:33:37;;;;;;;;;;;24.60;91.80;;;;;;5104045;28;19924;-57
2022/07/12 11:36:06;;;;;;;;;;;24.90;91.80;;;;;;5104914;28;19923;-55
2022/07/12 11:38:34;;;;;;;;;;;25.10;91.30;;;;;;5094071;28;19930;-55
2022/07/12 11:41:10;;;;;;;;;;;25.20;89.80;;;;;;5108714;28;20149;-57
2022/07/12 11:43:38;;;;;;;;;;;25.20;88.50;;;;;;5107313;28;19920;-57
2022/07/12 11:46:05;;;;;;;;;;;25.10;87.90;;;;;;5108413;28;19919;-56
2022/07/12 11:48:35;;;;;;;;;;;25.00;87.50;;;;;;5095857;28;19924;-57
2022/07/12 11:51:04;;;;;;;;;;;24.90;87.50;;;;;;5109359;28;19930;-57
2022/07/12 11:53:32;;;;;;;;;;;24.90;87.50;;;;;;5097730;28;19927;-57
2022/07/12 11:56:00;;;;;;;;;;;24.90;86.90;;;;;;5103197;28;19928;-58
2022/07/12 11:58:28;;;;;;;;;;;25.00;86.90;;;;;;5097849;28;20283;-57
2022/07/12 12:00:56;;;;;;;;;;;25.10;87.10;;;;;;5109193;28;19919;-57
2022/07/12 12:03:24;;;;;;;;;;;25.30;87.10;;;;;;5098724;28;19941;-57
2022/07/12 12:05:53;;;;;;;;;;;25.60;86.20;;;;;;5099700;28;19926;-58
2022/07/12 12:08:21;;;;;;;;;;;25.70;85.90;;;;;;5092886;28;19924;-58
2022/07/12 12:10:55;;;;;;;;;;;25.80;85.40;;;;;;5107723;28;19920;-56
2022/07/12 12:13:23;;;;;;;;;;;25.80;84.30;;;;;;5099694;28;19939;-56
2022/07/12 12:15:55;;;;;;;;;;;25.80;84.50;;;;;;5091753;28;20284;-57
2022/07/12 12:18:29;;;;;;;;;;;25.80;83.90;;;;;;5100242;28;20343;-57
2022/07/12 12:20:58;;;;;;;;;;;25.80;83.70;;;;;;5093880;28;19958;-57
2022/07/12 12:23:26;;;;;;;;;;;25.80;83.50;;;;;;5106131;28;19931;-57
2022/07/12 12:26:08;;;;;;;;;;;25.80;83.80;;;;;;5104244;28;19927;-56
2022/07/12 12:29:02;;;;;;;;;;;25.90;84.00;;;;;;5101084;28;20394;-57
2022/07/12 12:31:29;;;;;;;;;;;25.90;84.10;;;;;;5092831;28;20448;-57
2022/07/12 12:33:58;;;;;;;;;;;25.80;83.70;;;;;;5104269;28;19919;-57
2022/07/12 12:36:27;;;;;;;;;;;25.90;84.40;;;;;;5093610;28;19924;-56
2022/07/12 12:38:59;;;;;;;;;;;26.10;83.20;;;;;;5093159;28;19927;-55
2022/07/12 12:41:27;;;;;;;;;;;26.20;82.50;;;;;;5110793;28;20146;-56
2022/07/12 12:43:58;;;;;;;;;;;26.30;81.20;;;;;;5099103;28;19927;-56
2022/07/12 12:46:47;;;;;;;;;;;26.40;81.80;;;;;;5092287;28;19920;-56
2022/07/12 12:49:14;;;;;;;;;;;26.60;82.00;;;;;;5092061;28;19920;-56
2022/07/12 12:51:55;;;;;;;;;;;26.80;82.00;;;;;;5093614;28;19927;-55
2022/07/12 12:54:33;;;;;;;;;;;26.90;81.60;;;;;;5100456;28;20480;-56
2022/07/12 12:57:00;;;;;;;;;;;27.10;80.70;;;;;;5094257;28;19927;-55
2022/07/12 12:59:28;;;;;;;;;;;27.10;79.70;;;;;;5095100;28;19920;-56
2022/07/12 13:01:55;;;;;;;;;;;27.20;79.50;;;;;;5100159;28;19919;-57
2022/07/12 13:04:26;;;;;;;;;;;27.20;78.20;;;;;;5108518;28;19923;-56
2022/07/12 13:06:55;;;;;;;;;;;27.10;78.10;;;;;;5111276;28;19920;-56
2022/07/12 13:09:23;;;;;;;;;;;27.10;78.00;;;;;;5104314;28;20290;-56
2022/07/12 13:11:51;;;;;;;;;;;27.00;77.90;;;;;;5091811;28;19927;-55
2022/07/12 13:14:18;;;;;;;;;;;27.10;78.30;;;;;;5092715;28;20295;-56
2022/07/12 13:16:45;;;;;;;;;;;27.20;78.00;;;;;;5093327;28;19934;-56
2022/07/12 13:19:13;;;;;;;;;;;27.20;77.20;;;;;;5104724;28;19942;-56
2022/07/12 13:21:41;;;;;;;;;;;27.20;76.60;;;;;;5093427;28;19947;-57
2022/07/12 13:24:08;;;;;;;;;;;27.10;76.50;;;;;;5096153;28;19920;-56
2022/07/12 13:26:37;;;;;;;;;;;27.10;76.70;;;;;;5106742;28;19927;-56
2022/07/12 13:29:04;;;;;;;;;;;27.20;77.40;;;;;;5108407;28;19919;-56
2022/07/12 13:31:32;;;;;;;;;;;27.20;75.50;;;;;;5109823;28;19923;-56
2022/07/12 13:33:59;;;;;;;;;;;27.10;75.50;;;;;;5099939;28;20363;-56
2022/07/12 13:36:27;;;;;;;;;;;27.10;75.70;;;;;;5091296;28;20310;-56
2022/07/12 13:38:54;;;;;;;;;;;27.20;75.40;;;;;;5099797;28;19927;-56
2022/07/12 13:41:21;;;;;;;;;;;27.20;74.80;;;;;;5103917;28;19920;-55
2022/07/12 13:43:49;;;;;;;;;;;27.20;74.10;;;;;;5107795;28;20378;-56
2022/07/12 13:46:16;;;;;;;;;;;27.20;73.80;;;;;;5111308;28;19943;-56
2022/07/12 13:48:45;;;;;;;;;;;27.30;74.70;;;;;;5108783;28;20375;-56
2022/07/12 13:51:15;;;;;;;;;;;27.40;74.70;;;;;;5093006;28;19927;-56
2022/07/12 13:53:57;;;;;;;;;;;27.40;74.90;;;;;;5098300;28;20299;-57
2022/07/12 13:56:24;;;;;;;;;;;27.40;74.50;;;;;;5091136;28;19919;-56
2022/07/12 13:58:52;;;;;;;;;;;27.40;74.50;;;;;;5096583;28;19920;-58
2022/07/12 14:01:20;;;;;;;;;;;27.50;74.90;;;;;;5109153;28;20623;-57
2022/07/12 14:03:47;;;;;;;;;;;27.50;74.10;;;;;;5104032;28;19927;-58
2022/07/12 14:06:15;;;;;;;;;;;27.50;74.40;;;;;;5106066;28;19924;-57
2022/07/12 14:08:43;;;;;;;;;;;27.60;74.10;;;;;;5092377;28;19928;-57
2022/07/12 14:11:10;;;;;;;;;;;27.60;73.70;;;;;;5093147;28;19920;-57
2022/07/12 14:13:38;;;;;;;;;;;27.50;73.90;;;;;;5102878;28;19927;-57
2022/07/12 14:16:05;;;;;;;;;;;27.40;73.70;;;;;;5111462;27;19921;-57
2022/07/12 14:18:33;;;;;;;;;;;27.30;73.80;;;;;;5100345;28;20393;-57
2022/07/12 14:21:01;;;;;;;;;;;27.30;73.50;;;;;;5091563;28;19924;-58
2022/07/12 14:23:29;;;;;;;;;;;27.40;71.50;;;;;;5098973;28;19920;-58
2022/07/12 14:25:56;;;;;;;;;;;27.40;71.60;;;;;;5092041;28;19920;-57
2022/07/12 14:28:24;;;;;;;;;;;27.30;70.10;;;;;;5105425;28;19938;-57
2022/07/12 14:30:51;;;;;;;;;;;27.40;70.90;;;;;;5107721;28;19946;-57
2022/07/12 14:33:19;;;;;;;;;;;27.40;70.20;;;;;;5107780;28;19919;-58
2022/07/12 14:35:46;;;;;;;;;;;27.40;70.90;;;;;;5108231;28;19932;-57
2022/07/12 14:38:13;;;;;;;;;;;27.40;71.90;;;;;;5097997;28;19935;-57